Time;durP1;ratioP1;P1;durP2;ratioP2;P2;SDS_P1;SDS_P2;PMS_P1;PMS_P2;Temp;Humidity;BMP_temperature;BMP_pressure;BME280_temperature;BME280_humidity;BME280_pressure;Samples;Min_cycle;Max_cycle;Signal;HPM_P1;HPM_P2
2023/03/01 00:00:23;;;;;;;20.03;7.50;;;;;;;;;;10473018;28;20064;-74
2023/03/01 00:05:41;;;;;;;23.80;7.43;;;;;;;;;;10472058;28;20036;-76
2023/03/01 00:10:50;;;;;;;17.97;6.60;;;;;;;;;;10473081;28;20041;-76
2023/03/01 00:16:04;;;;;;;16.92;6.38;;;;;;;;;;10454900;28;20044;-75
2023/03/01 00:21:10;;;;;;;12.50;4.97;;;;;;;;;;10469992;28;20048;-76
2023/03/01 00:26:15;;;;;;;12.10;4.13;;;;;;;;;;10475236;28;20044;-75
2023/03/01 00:31:35;;;;;;;17.63;6.53;;;;;;;;;;10469445;28;20079;-75
2023/03/01 00:36:38;;;;;;;11.27;3.83;;;;;;;;;;10471984;28;20059;-76
2023/03/01 00:41:50;;;;;;;14.27;6.43;;;;;;;;;;10451941;28;20079;-76
2023/03/01 00:47:04;;;;;;;10.05;3.58;;;;;;;;;;10469889;28;20043;-76
2023/03/01 00:52:14;;;;;;;16.90;5.10;;;;;;;;;;10470156;28;20060;-75
2023/03/01 00:57:25;;;;;;;12.00;4.03;;;;;;;;;;10473316;28;20228;-77
2023/03/01 01:02:31;;;;;;;16.57;6.00;;;;;;;;;;10443182;28;20037;-77
2023/03/01 01:07:36;;;;;;;12.80;4.63;;;;;;;;;;10467791;28;21360;-77
2023/03/01 01:12:40;;;;;;;10.85;4.50;;;;;;;;;;10462710;28;20064;-76
2023/03/01 01:17:49;;;;;;;12.70;6.20;;;;;;;;;;10450561;28;20090;-76
2023/03/01 01:22:54;;;;;;;11.47;4.43;;;;;;;;;;10443769;28;20153;-76
2023/03/01 01:27:59;;;;;;;15.00;6.40;;;;;;;;;;10459240;28;20045;-76
2023/03/01 01:33:07;;;;;;;12.43;4.17;;;;;;;;;;10457862;28;20410;-75
2023/03/01 01:38:11;;;;;;;15.93;5.93;;;;;;;;;;10492856;28;20231;-76
2023/03/01 01:43:27;;;;;;;12.15;4.80;;;;;;;;;;10484041;28;20423;-77
2023/03/01 01:48:44;;;;;;;14.70;6.20;;;;;;;;;;10469758;28;20036;-77
2023/03/01 01:53:56;;;;;;;9.87;4.37;;;;;;;;;;10482303;28;20475;-77
2023/03/01 01:59:00;;;;;;;13.80;6.13;;;;;;;;;;10486331;28;20033;-77
2023/03/01 02:04:07;;;;;;;9.67;4.93;;;;;;;;;;10444824;28;20032;-76
2023/03/01 02:09:18;;;;;;;17.40;7.13;;;;;;;;;;10476744;28;20295;-76
2023/03/01 02:14:26;;;;;;;11.43;4.30;;;;;;;;;;10473373;28;20036;-76
2023/03/01 02:19:40;;;;;;;20.93;7.53;;;;;;;;;;10478732;28;20152;-77
2023/03/01 02:24:50;;;;;;;12.00;5.07;;;;;;;;;;10461179;28;20086;-76
2023/03/01 02:30:06;;;;;;;14.23;6.23;;;;;;;;;;10472181;28;20047;-77
2023/03/01 02:35:15;;;;;;;13.03;5.23;;;;;;;;;;10453268;28;20083;-77
2023/03/01 02:40:34;;;;;;;8.80;3.07;;;;;;;;;;10458144;28;20670;-75
2023/03/01 02:45:55;;;;;;;7.03;3.27;;;;;;;;;;10459667;28;20130;-73
2023/03/01 02:51:12;;;;;;;20.50;8.53;;;;;;;;;;10489208;28;20401;-77
2023/03/01 02:56:19;;;;;;;17.13;5.87;;;;;;;;;;10463216;28;20036;-75
2023/03/01 03:01:36;;;;;;;19.70;7.30;;;;;;;;;;10473918;28;20045;-74
2023/03/01 03:06:41;;;;;;;8.33;4.07;;;;;;;;;;10472871;28;20040;-75
2023/03/01 03:11:54;;;;;;;16.60;6.43;;;;;;;;;;10478904;28;20064;-76
2023/03/01 03:17:00;;;;;;;10.77;5.07;;;;;;;;;;10451802;28;20033;-75
2023/03/01 03:22:09;;;;;;;5.40;2.57;;;;;;;;;;10456271;28;20146;-76
2023/03/01 03:27:15;;;;;;;6.43;2.50;;;;;;;;;;10474204;28;20049;-77
2023/03/01 03:32:22;;;;;;;16.90;6.50;;;;;;;;;;10471213;28;20090;-75
2023/03/01 03:42:49;;;;;;;8.20;3.93;;;;;;;;;;10480374;28;20040;-75
2023/03/01 03:47:57;;;;;;;13.27;5.33;;;;;;;;;;10473471;28;20040;-75
2023/03/01 03:53:07;;;;;;;7.17;4.00;;;;;;;;;;10476479;28;20437;-77
2023/03/01 03:58:19;;;;;;;11.33;4.13;;;;;;;;;;10461256;28;20056;-75
2023/03/01 04:03:34;;;;;;;10.67;4.63;;;;;;;;;;10482958;28;20167;-75
2023/03/01 04:08:50;;;;;;;9.80;4.60;;;;;;;;;;10485505;28;20041;-76
2023/03/01 04:13:57;;;;;;;14.03;6.03;;;;;;;;;;10473180;28;20054;-78
2023/03/01 04:19:17;;;;;;;14.57;4.20;;;;;;;;;;10486223;28;20360;-79
2023/03/01 04:24:25;;;;;;;12.50;5.63;;;;;;;;;;10491807;28;20055;-78
2023/03/01 04:29:31;;;;;;;11.63;4.83;;;;;;;;;;10455274;28;20417;-75
2023/03/01 04:34:35;;;;;;;14.60;5.57;;;;;;;;;;10477856;28;20522;-75
2023/03/01 04:39:54;;;;;;;12.77;6.23;;;;;;;;;;10455289;28;20045;-76
2023/03/01 04:45:00;;;;;;;17.67;7.50;;;;;;;;;;10438717;28;20040;-75
2023/03/01 04:50:05;;;;;;;15.37;5.97;;;;;;;;;;10473655;28;20051;-77
2023/03/01 04:55:18;;;;;;;11.13;5.10;;;;;;;;;;10459193;28;20218;-77
2023/03/01 05:00:32;;;;;;;11.03;4.20;;;;;;;;;;10480706;28;20033;-76
2023/03/01 05:05:38;;;;;;;14.43;6.07;;;;;;;;;;10474204;28;20052;-76
2023/03/01 05:10:52;;;;;;;9.43;4.10;;;;;;;;;;10461776;28;20040;-76
2023/03/01 05:15:58;;;;;;;14.63;5.37;;;;;;;;;;10459919;28;20056;-77
2023/03/01 05:21:05;;;;;;;17.67;6.10;;;;;;;;;;10461603;28;20033;-76
2023/03/01 05:26:28;;;;;;;10.93;4.30;;;;;;;;;;10461693;28;20056;-77
2023/03/01 05:31:34;;;;;;;21.63;8.10;;;;;;;;;;10459000;28;20033;-76
2023/03/01 05:36:42;;;;;;;11.13;4.70;;;;;;;;;;10455970;28;20045;-74
2023/03/01 05:41:56;;;;;;;17.33;5.50;;;;;;;;;;10478893;28;20070;-77
2023/03/01 05:47:04;;;;;;;19.67;6.50;;;;;;;;;;10479089;28;20043;-76
2023/03/01 05:52:19;;;;;;;22.30;6.83;;;;;;;;;;10474064;28;20127;-76
2023/03/01 05:57:32;;;;;;;12.83;4.97;;;;;;;;;;10442521;28;20041;-76
2023/03/01 06:02:41;;;;;;;12.50;5.20;;;;;;;;;;10475233;28;20048;-76
2023/03/01 06:07:47;;;;;;;16.43;6.50;;;;;;;;;;10476391;28;20257;-77
2023/03/01 06:12:58;;;;;;;16.53;6.17;;;;;;;;;;10453126;28;20044;-77
2023/03/01 06:18:11;;;;;;;21.33;7.47;;;;;;;;;;10450656;28;20574;-76
2023/03/01 06:23:27;;;;;;;19.55;6.78;;;;;;;;;;10482025;28;20057;-77
2023/03/01 06:28:34;;;;;;;15.43;5.57;;;;;;;;;;10478597;28;20047;-76
2023/03/01 06:33:49;;;;;;;14.73;5.63;;;;;;;;;;10477730;28;20132;-77
2023/03/01 06:39:02;;;;;;;11.87;4.60;;;;;;;;;;10460735;28;20053;-76
2023/03/01 06:44:09;;;;;;;14.77;4.33;;;;;;;;;;10493755;28;20045;-76
2023/03/01 06:49:25;;;;;;;6.43;3.43;;;;;;;;;;10455305;28;20457;-76
2023/03/01 06:54:38;;;;;;;14.80;7.17;;;;;;;;;;10447336;28;20047;-76
2023/03/01 06:59:47;;;;;;;12.63;4.88;;;;;;;;;;10466068;28;20033;-76
2023/03/01 07:04:57;;;;;;;16.83;5.47;;;;;;;;;;10469648;28;20498;-76
2023/03/01 07:10:01;;;;;;;10.57;4.13;;;;;;;;;;10456602;28;20040;-76
2023/03/01 07:15:20;;;;;;;17.77;6.07;;;;;;;;;;10477932;28;20163;-76
2023/03/01 07:20:31;;;;;;;9.53;4.87;;;;;;;;;;10472795;28;20033;-78
2023/03/01 07:25:41;;;;;;;19.63;7.65;;;;;;;;;;10455617;28;20543;-76
2023/03/01 07:30:49;;;;;;;7.80;3.53;;;;;;;;;;10477256;28;20041;-75
2023/03/01 07:36:03;;;;;;;16.83;6.47;;;;;;;;;;10439679;28;20032;-75
2023/03/01 07:41:13;;;;;;;19.20;6.57;;;;;;;;;;10475499;28;20509;-76
2023/03/01 07:46:20;;;;;;;16.60;7.10;;;;;;;;;;10475142;28;20043;-75
2023/03/01 07:51:34;;;;;;;12.33;5.63;;;;;;;;;;10476264;28;20075;-76
2023/03/01 07:56:38;;;;;;;12.97;4.63;;;;;;;;;;10461577;28;20036;-76
2023/03/01 08:01:43;;;;;;;9.80;4.50;;;;;;;;;;10459461;28;20028;-77
2023/03/01 08:06:56;;;;;;;4.87;3.13;;;;;;;;;;10483631;28;20048;-76
2023/03/01 08:12:01;;;;;;;14.57;5.53;;;;;;;;;;10478246;28;20036;-77
2023/03/01 08:17:07;;;;;;;6.10;2.83;;;;;;;;;;10450310;28;20076;-79
2023/03/01 08:22:18;;;;;;;10.20;4.40;;;;;;;;;;10474910;28;21531;-77
2023/03/01 08:27:28;;;;;;;13.17;5.40;;;;;;;;;;10475699;28;20049;-76
2023/03/01 08:32:40;;;;;;;11.97;4.80;;;;;;;;;;10455703;28;20049;-77
2023/03/01 08:37:57;;;;;;;19.77;8.60;;;;;;;;;;10461262;28;20041;-76
2023/03/01 08:43:04;;;;;;;17.40;7.43;;;;;;;;;;10482854;28;20094;-77
2023/03/01 08:48:13;;;;;;;18.23;6.60;;;;;;;;;;10463752;28;20127;-75
2023/03/01 08:53:19;;;;;;;9.37;4.17;;;;;;;;;;10477073;28;20144;-76
2023/03/01 08:58:29;;;;;;;18.08;6.95;;;;;;;;;;10466524;28;20044;-75
2023/03/01 09:03:36;;;;;;;16.77;5.60;;;;;;;;;;10492642;28;20082;-76
2023/03/01 09:08:52;;;;;;;15.05;5.95;;;;;;;;;;10494072;28;20041;-76
2023/03/01 09:13:57;;;;;;;;;;;;;;;;;;10472693;28;20045;-78
2023/03/01 09:19:00;;;;;;;21.60;8.02;;;;;;;;;;10484354;28;19920;-77
2023/03/01 09:24:05;;;;;;;16.70;4.85;;;;;;;;;;10484519;28;20047;-77
2023/03/01 09:29:14;;;;;;;13.13;5.45;;;;;;;;;;10482390;28;20072;-77
2023/03/01 09:34:29;;;;;;;20.40;7.30;;;;;;;;;;10467648;28;20139;-77
2023/03/01 09:39:38;;;;;;;19.33;8.75;;;;;;;;;;10458756;28;20074;-77
2023/03/01 09:44:52;;;;;;;25.05;9.50;;;;;;;;;;10465579;28;20506;-78
2023/03/01 09:50:06;;;;;;;18.35;7.47;;;;;;;;;;10470029;28;20109;-78
2023/03/01 09:55:15;;;;;;;14.10;5.65;;;;;;;;;;10460566;28;20457;-77
2023/03/01 10:00:25;;;;;;;17.35;5.53;;;;;;;;;;10477747;28;20165;-78
2023/03/01 10:05:42;;;;;;;17.15;4.90;;;;;;;;;;10477994;28;20174;-77
2023/03/01 10:10:53;;;;;;;13.07;4.88;;;;;;;;;;10480726;28;20494;-77
2023/03/01 10:15:58;;;;;;;21.42;7.60;;;;;;;;;;10465815;28;20135;-77
2023/03/01 10:26:38;;;;;;;23.33;9.32;;;;;;;;;;10481924;28;20058;-76
2023/03/01 10:31:49;;;;;;;22.15;9.48;;;;;;;;;;10478668;28;20127;-77
2023/03/01 10:37:00;;;;;;;17.52;9.27;;;;;;;;;;10464588;28;20121;-77
2023/03/01 10:42:15;;;;;;;20.35;8.93;;;;;;;;;;10456965;28;20521;-77
2023/03/01 10:47:33;;;;;;;21.17;10.45;;;;;;;;;;10480693;28;20040;-77
2023/03/01 10:52:50;;;;;;;23.80;12.00;;;;;;;;;;10458645;28;20128;-76
2023/03/01 10:58:12;;;;;;;20.58;9.95;;;;;;;;;;10475198;28;20045;-77
2023/03/01 11:03:24;;;;;;;21.92;12.60;;;;;;;;;;10473322;28;20079;-77
2023/03/01 11:08:39;;;;;;;22.52;13.75;;;;;;;;;;10457844;28;20040;-77
2023/03/01 11:14:00;;;;;;;26.98;14.77;;;;;;;;;;10493177;28;20399;-78
2023/03/01 11:19:19;;;;;;;27.42;14.80;;;;;;;;;;10456386;28;20055;-78
2023/03/01 11:24:31;;;;;;;23.75;13.77;;;;;;;;;;10481002;28;20052;-77
2023/03/01 11:29:47;;;;;;;27.70;15.90;;;;;;;;;;10469904;28;20068;-77
2023/03/01 11:35:12;;;;;;;24.13;15.05;;;;;;;;;;10475919;28;20285;-78
2023/03/01 11:40:31;;;;;;;27.30;16.25;;;;;;;;;;10473009;28;20509;-78
2023/03/01 11:45:55;;;;;;;32.67;18.48;;;;;;;;;;10476902;28;20131;-78
2023/03/01 11:51:03;;;;;;;;;;;;;;;;;;10474037;28;20040;-78
2023/03/01 11:56:17;;;;;;;21.65;13.52;;;;;;;;;;10491591;28;19966;-78
2023/03/01 12:01:35;;;;;;;24.30;13.98;;;;;;;;;;10470935;28;20047;-77
2023/03/01 12:06:54;;;;;;;25.92;15.23;;;;;;;;;;10474982;28;20064;-79
2023/03/01 12:12:15;;;;;;;36.05;15.07;;;;;;;;;;10445447;28;20147;-78
2023/03/01 12:17:37;;;;;;;30.58;15.70;;;;;;;;;;10465840;28;20056;-77
2023/03/01 12:22:50;;;;;;;24.63;14.35;;;;;;;;;;10459986;28;20491;-78
2023/03/01 12:28:15;;;;;;;24.60;14.02;;;;;;;;;;10479348;28;20037;-77
2023/03/01 12:33:35;;;;;;;26.77;15.15;;;;;;;;;;10442488;28;20067;-78
2023/03/01 12:38:55;;;;;;;23.23;12.43;;;;;;;;;;10468116;28;20478;-77
2023/03/01 12:49:27;;;;;;;26.88;14.05;;;;;;;;;;10476176;28;20051;-78
2023/03/01 12:54:45;;;;;;;21.05;11.73;;;;;;;;;;10463190;28;20115;-80
2023/03/01 13:00:11;;;;;;;23.75;13.27;;;;;;;;;;10454922;28;20585;-77
2023/03/01 13:05:24;;;;;;;;;;;;;;;;;;10451569;28;20568;-77
2023/03/01 13:10:49;;;;;;;24.73;13.48;;;;;;;;;;10459924;28;20024;-78
2023/03/01 13:16:33;;;;;;;23.00;13.32;;;;;;;;;;10456539;28;20057;-78
2023/03/01 13:27:24;;;;;;;21.67;12.45;;;;;;;;;;10478754;28;20051;-77
2023/03/01 13:32:32;;;;;;;21.55;12.88;;;;;;;;;;10483446;28;20048;-78
2023/03/01 13:37:52;;;;;;;26.73;13.73;;;;;;;;;;10482970;28;20047;-77
2023/03/01 13:43:22;;;;;;;24.25;12.63;;;;;;;;;;10498001;28;20059;-77
2023/03/01 13:48:30;;;;;;;24.67;12.73;;;;;;;;;;10455657;28;20044;-77
2023/03/01 13:53:37;;;;;;;25.13;12.10;;;;;;;;;;10466249;28;20036;-76
2023/03/01 13:58:47;;;;;;;22.83;11.90;;;;;;;;;;10467291;28;20048;-76
2023/03/01 14:03:52;;;;;;;19.83;9.15;;;;;;;;;;10470555;28;20051;-75
2023/03/01 14:09:09;;;;;;;26.73;12.40;;;;;;;;;;10490266;28;20423;-75
2023/03/01 14:14:31;;;;;;;21.17;11.25;;;;;;;;;;10479947;28;20524;-76
2023/03/01 14:19:37;;;;;;;24.25;11.35;;;;;;;;;;10482429;28;20072;-76
2023/03/01 14:24:49;;;;;;;24.17;10.98;;;;;;;;;;10491535;28;20567;-76
2023/03/01 14:30:14;;;;;;;20.95;9.07;;;;;;;;;;10456095;28;20145;-77
2023/03/01 14:35:24;;;;;;;28.45;9.98;;;;;;;;;;10464723;28;20049;-77
2023/03/01 14:40:28;;;;;;;27.42;12.10;;;;;;;;;;10456356;28;20128;-76
2023/03/01 14:45:32;;;;;;;26.23;12.32;;;;;;;;;;10460074;28;20135;-76
2023/03/01 14:50:44;;;;;;;22.35;10.80;;;;;;;;;;10458543;28;20037;-76
2023/03/01 14:55:51;;;;;;;22.50;10.52;;;;;;;;;;10480027;28;20032;-76
2023/03/01 15:01:14;;;;;;;19.77;9.10;;;;;;;;;;10440964;28;20033;-76
2023/03/01 15:06:38;;;;;;;22.65;10.70;;;;;;;;;;10484011;28;20056;-77
2023/03/01 15:11:45;;;;;;;22.52;9.27;;;;;;;;;;10463881;28;20054;-78
2023/03/01 15:16:56;;;;;;;24.50;10.48;;;;;;;;;;10476038;28;20510;-77
2023/03/01 15:22:12;;;;;;;22.27;9.15;;;;;;;;;;10462800;28;20033;-76
2023/03/01 15:27:19;;;;;;;20.55;9.20;;;;;;;;;;10457737;28;20071;-78
2023/03/01 15:32:42;;;;;;;20.45;9.20;;;;;;;;;;10474977;28;20041;-76
2023/03/01 15:37:49;;;;;;;23.13;9.45;;;;;;;;;;10475137;28;20470;-76
2023/03/01 15:42:56;;;;;;;17.38;7.78;;;;;;;;;;10474845;28;20048;-76
2023/03/01 15:48:17;;;;;;;23.13;8.68;;;;;;;;;;10490068;28;20044;-76
2023/03/01 15:53:25;;;;;;;23.13;8.60;;;;;;;;;;10479676;28;20033;-76
2023/03/01 15:58:33;;;;;;;21.42;8.52;;;;;;;;;;10472593;28;20094;-76
2023/03/01 16:03:38;;;;;;;20.00;8.02;;;;;;;;;;10445457;28;20040;-76
2023/03/01 16:08:45;;;;;;;25.02;7.75;;;;;;;;;;10453366;28;20378;-77
2023/03/01 16:13:59;;;;;;;22.92;8.35;;;;;;;;;;10457225;28;20494;-76
2023/03/01 16:19:06;;;;;;;21.15;6.97;;;;;;;;;;10436813;28;20041;-76
2023/03/01 16:24:18;;;;;;;21.70;8.15;;;;;;;;;;10477156;28;20045;-76
2023/03/01 16:29:22;;;;;;;20.30;7.93;;;;;;;;;;10473062;28;20064;-77
2023/03/01 16:34:54;;;;;;;20.88;7.93;;;;;;;;;;10492387;28;20077;-76
2023/03/01 16:40:17;;;;;;;23.10;8.85;;;;;;;;;;10475533;28;20075;-76
2023/03/01 16:45:35;;;;;;;22.38;9.07;;;;;;;;;;10480065;28;20528;-76
2023/03/01 16:50:42;;;;;;;24.90;8.30;;;;;;;;;;10481147;28;20044;-76
2023/03/01 16:55:55;;;;;;;18.52;7.85;;;;;;;;;;10474557;28;20164;-76
2023/03/01 17:01:15;;;;;;;19.80;7.87;;;;;;;;;;10483273;28;20132;-75
2023/03/01 17:06:35;;;;;;;19.63;8.50;;;;;;;;;;10482620;28;20055;-77
2023/03/01 17:11:46;;;;;;;21.27;7.90;;;;;;;;;;10483033;28;20390;-77
2023/03/01 17:16:52;;;;;;;19.85;6.70;;;;;;;;;;10484896;28;20047;-76
2023/03/01 17:21:56;;;;;;;19.52;7.68;;;;;;;;;;10483386;28;20047;-75
2023/03/01 17:27:04;;;;;;;23.02;8.32;;;;;;;;;;10476568;28;20049;-77
2023/03/01 17:32:15;;;;;;;25.55;8.15;;;;;;;;;;10457833;28;20044;-76
2023/03/01 17:37:21;;;;;;;34.50;9.85;;;;;;;;;;10501157;28;20047;-77
2023/03/01 17:42:30;;;;;;;59.35;14.65;;;;;;;;;;10487394;28;20441;-77
2023/03/01 17:47:40;;;;;;;40.80;10.02;;;;;;;;;;10479765;28;20045;-76
2023/03/01 17:52:44;;;;;;;20.02;7.15;;;;;;;;;;10480269;28;20111;-76
2023/03/01 17:57:51;;;;;;;69.00;19.70;;;;;;;;;;10469709;28;20149;-74
2023/03/01 18:02:55;;;;;;;25.08;9.40;;;;;;;;;;10478482;28;20481;-77
2023/03/01 18:07:58;;;;;;;43.28;14.80;;;;;;;;;;10476478;28;20044;-76
2023/03/01 18:13:09;;;;;;;23.55;7.25;;;;;;;;;;10484221;28;20075;-76
2023/03/01 18:18:15;;;;;;;41.85;13.90;;;;;;;;;;10468517;28;20044;-77
2023/03/01 18:23:21;;;;;;;31.55;10.52;;;;;;;;;;10475787;28;20043;-77
2023/03/01 18:28:34;;;;;;;29.65;9.90;;;;;;;;;;10490933;28;20059;-79
2023/03/01 18:33:51;;;;;;;34.15;12.63;;;;;;;;;;10481332;28;20119;-79
2023/03/01 18:49:43;;;;;;;42.05;15.45;;;;;;;;;;10458291;28;20045;-78
2023/03/01 18:54:58;;;;;;;43.67;14.65;;;;;;;;;;10476401;28;20038;-78
2023/03/01 19:00:12;;;;;;;32.75;11.93;;;;;;;;;;10484038;28;20579;-76
2023/03/01 19:05:25;;;;;;;36.75;13.13;;;;;;;;;;10481093;28;20139;-76
2023/03/01 19:10:35;;;;;;;35.10;12.20;;;;;;;;;;10467676;28;20067;-76
2023/03/01 19:15:44;;;;;;;26.33;9.23;;;;;;;;;;10484000;28;20044;-76
2023/03/01 19:21:03;;;;;;;31.90;11.35;;;;;;;;;;10477843;28;20515;-76
2023/03/01 19:26:15;;;;;;;24.43;8.83;;;;;;;;;;10485633;28;20148;-77
2023/03/01 19:31:24;;;;;;;20.03;7.50;;;;;;;;;;10461693;28;20115;-76
2023/03/01 19:36:57;;;;;;;25.42;7.65;;;;;;;;;;10493611;28;20032;-77
2023/03/01 19:42:14;;;;;;;20.90;6.87;;;;;;;;;;10479335;28;20117;-77
2023/03/01 19:47:23;;;;;;;25.45;7.95;;;;;;;;;;10455222;28;20040;-75
2023/03/01 19:52:27;;;;;;;20.67;7.23;;;;;;;;;;10461699;28;20120;-75
2023/03/01 19:57:32;;;;;;;22.63;7.53;;;;;;;;;;10476102;28;20143;-75
2023/03/01 20:08:08;;;;;;;22.37;7.30;;;;;;;;;;10507157;27;20684;-77
2023/03/01 20:13:11;;;;;;;20.70;6.47;;;;;;;;;;10477660;28;20048;-77
2023/03/01 20:18:14;;;;;;;17.05;5.70;;;;;;;;;;10467192;28;20049;-77
2023/03/01 20:23:18;;;;;;;13.67;5.57;;;;;;;;;;10471278;28;20044;-77
2023/03/01 20:28:21;;;;;;;10.38;4.55;;;;;;;;;;10468131;28;20055;-77
2023/03/01 20:33:24;;;;;;;13.37;5.60;;;;;;;;;;10475441;28;20102;-76
2023/03/01 20:38:28;;;;;;;17.50;7.17;;;;;;;;;;10468698;28;20136;-76
2023/03/01 20:43:33;;;;;;;13.80;4.47;;;;;;;;;;10470062;28;20045;-79
2023/03/01 20:48:46;;;;;;;20.60;6.10;;;;;;;;;;10462809;28;20047;-76
2023/03/01 20:53:50;;;;;;;26.40;9.00;;;;;;;;;;10463944;28;20060;-78
2023/03/01 20:58:58;;;;;;;19.10;7.30;;;;;;;;;;10461288;28;20559;-75
2023/03/01 21:04:02;;;;;;;19.95;6.55;;;;;;;;;;10467042;28;20044;-75
2023/03/01 21:09:09;;;;;;;26.20;8.73;;;;;;;;;;10466815;28;20275;-77
2023/03/01 21:14:12;;;;;;;25.20;8.23;;;;;;;;;;10464150;28;20029;-78
2023/03/01 21:19:15;;;;;;;19.30;6.53;;;;;;;;;;10434217;28;20119;-77
2023/03/01 21:24:20;;;;;;;26.17;8.10;;;;;;;;;;10439956;28;20031;-78
2023/03/01 21:29:22;;;;;;;;;;;;;;;;;;10441591;28;20417;-78
2023/03/01 21:34:25;;;;;;;23.17;8.03;;;;;;;;;;10445670;28;19939;-79
2023/03/01 21:39:33;;;;;;;16.93;6.17;;;;;;;;;;10447479;28;20427;-80
2023/03/01 21:44:36;;;;;;;21.07;6.87;;;;;;;;;;10442042;28;20082;-78
2023/03/01 21:49:40;;;;;;;15.27;5.87;;;;;;;;;;10444892;28;20045;-80
2023/03/01 21:54:45;;;;;;;19.05;7.80;;;;;;;;;;10433899;28;20079;-78
2023/03/01 21:59:48;;;;;;;24.67;7.40;;;;;;;;;;10427439;28;20243;-78
2023/03/01 22:04:56;;;;;;;21.97;7.10;;;;;;;;;;10443479;28;20530;-80
2023/03/01 22:10:00;;;;;;;25.17;8.60;;;;;;;;;;10442270;28;20080;-80
2023/03/01 22:15:04;;;;;;;29.57;9.03;;;;;;;;;;10436805;28;20221;-80
2023/03/01 22:20:11;;;;;;;23.33;8.70;;;;;;;;;;10442928;28;20540;-80
2023/03/01 22:25:14;;;;;;;17.55;6.53;;;;;;;;;;10445508;28;20086;-78
2023/03/01 22:30:28;;;;;;;23.73;8.40;;;;;;;;;;10439030;28;20041;-78
2023/03/01 22:35:31;;;;;;;18.75;6.38;;;;;;;;;;10441331;28;20063;-78
2023/03/01 22:40:36;;;;;;;25.30;7.57;;;;;;;;;;10431796;28;20071;-80
2023/03/01 22:45:40;;;;;;;22.77;7.17;;;;;;;;;;10441196;28;20045;-78
2023/03/01 22:50:44;;;;;;;25.00;8.30;;;;;;;;;;10439792;28;20045;-78
2023/03/01 22:55:48;;;;;;;21.98;6.72;;;;;;;;;;10448043;28;20037;-78
2023/03/01 23:00:51;;;;;;;22.17;7.50;;;;;;;;;;10439681;28;20510;-79
2023/03/01 23:05:55;;;;;;;21.90;7.93;;;;;;;;;;10436081;28;20038;-79
2023/03/01 23:11:00;;;;;;;19.33;6.88;;;;;;;;;;10436968;28;20098;-80
2023/03/01 23:16:04;;;;;;;22.50;7.93;;;;;;;;;;10442264;28;20036;-79
2023/03/01 23:21:08;;;;;;;24.73;8.18;;;;;;;;;;10431639;28;20064;-78
2023/03/01 23:26:13;;;;;;;23.13;7.60;;;;;;;;;;10439846;28;20132;-78
2023/03/01 23:31:23;;;;;;;26.63;7.97;;;;;;;;;;10433437;28;20455;-80
2023/03/01 23:36:43;;;;;;;24.63;7.90;;;;;;;;;;10444883;28;20529;-78
2023/03/01 23:41:48;;;;;;;27.30;8.50;;;;;;;;;;10430888;28;20113;-78
2023/03/01 23:46:51;;;;;;;31.20;9.10;;;;;;;;;;10449282;28;20037;-78
2023/03/01 23:51:54;;;;;;;15.23;5.37;;;;;;;;;;10440485;28;20033;-77
2023/03/01 23:57:00;;;;;;;26.13;7.38;;;;;;;;;;10440253;28;20101;-77
